Time;durP1;ratioP1;P1;durP2;ratioP2;P2;SDS_P1;SDS_P2;PMS_P1;PMS_P2;Temp;Humidity;BMP_temperature;BMP_pressure;BME280_temperature;BME280_humidity;BME280_pressure;Samples;Min_cycle;Max_cycle;Signal;HPM_P1;HPM_P2
2022/05/28 00:00:40;;;;;;;1.37;1.27;;;;;;;13.61;100.00;96631.09;5032191;27;102538;-61
2022/05/28 00:03:08;;;;;;;1.63;1.20;;;;;;;13.56;100.00;96631.06;5033605;28;101857;-61
2022/05/28 00:05:57;;;;;;;1.50;1.40;;;;;;;13.46;100.00;96628.41;5033105;28;103575;-62
2022/05/28 00:08:26;;;;;;;1.50;1.40;;;;;;;13.42;100.00;96616.63;5031348;28;106391;-61
2022/05/28 00:10:57;;;;;;;1.87;1.67;;;;;;;13.46;100.00;96612.38;5036465;28;101837;-61
2022/05/28 00:13:24;;;;;;;1.40;1.40;;;;;;;13.58;100.00;96615.59;5031128;28;105425;-61
2022/05/28 00:15:51;;;;;;;1.90;1.40;;;;;;;13.43;100.00;96613.69;5032864;28;101877;-61
2022/05/28 00:18:18;;;;;;;1.83;1.53;;;;;;;13.46;100.00;96618.50;5031709;28;105169;-61
2022/05/28 00:20:45;;;;;;;1.40;1.30;;;;;;;13.50;100.00;96608.91;5032067;27;102625;-61
2022/05/28 00:23:14;;;;;;;1.40;1.30;;;;;;;13.41;100.00;96607.00;5030886;28;102047;-61
2022/05/28 00:26:24;;;;;;;1.60;1.50;;;;;;;13.39;100.00;96607.28;5032860;28;102376;-61
2022/05/28 00:29:21;;;;;;;1.90;1.80;;;;;;;13.33;100.00;96611.00;5031942;28;103129;-61
2022/05/28 00:31:49;;;;;;;1.63;1.53;;;;;;;13.23;100.00;96602.13;5031793;28;101877;-61
2022/05/28 00:34:16;;;;;;;1.80;1.60;;;;;;;13.21;100.00;96598.91;5033452;28;105117;-61
2022/05/28 00:36:42;;;;;;;1.80;1.70;;;;;;;13.19;100.00;96599.16;5032655;28;101763;-61
2022/05/28 00:39:11;;;;;;;1.90;1.60;;;;;;;13.33;100.00;96592.28;5030467;28;103744;-61
2022/05/28 00:41:38;;;;;;;1.87;1.77;;;;;;;13.25;100.00;96589.31;5030655;28;105314;-61
2022/05/28 00:44:07;;;;;;;2.43;1.83;;;;;;;13.30;100.00;96581.34;5032506;27;102040;-61
2022/05/28 00:46:34;;;;;;;1.70;1.60;;;;;;;13.28;100.00;96573.56;5031405;28;104715;-61
2022/05/28 00:49:06;;;;;;;1.63;1.37;;;;;;;13.31;100.00;96567.69;5030453;28;105437;-61
2022/05/28 00:51:36;;;;;;;1.80;1.70;;;;;;;13.32;100.00;96574.66;5032809;28;101706;-61
2022/05/28 00:54:06;;;;;;;1.60;1.50;;;;;;;13.33;100.00;96581.59;5030484;28;104416;-61
2022/05/28 00:56:35;;;;;;;1.60;1.50;;;;;;;13.32;100.00;96577.34;5033911;28;104022;-61
2022/05/28 00:59:01;;;;;;;1.70;1.60;;;;;;;13.39;100.00;96579.75;5030744;28;103704;-61
2022/05/28 01:01:31;;;;;;;1.90;1.70;;;;;;;13.40;100.00;96579.47;5028765;27;102752;-61
2022/05/28 01:04:26;;;;;;;1.80;1.70;;;;;;;13.41;100.00;96577.63;5030618;28;102025;-61
2022/05/28 01:07:00;;;;;;;1.67;1.57;;;;;;;13.37;100.00;96580.03;5030841;28;103651;-61
2022/05/28 01:09:34;;;;;;;1.67;1.57;;;;;;;13.39;100.00;96574.41;5029991;28;105478;-61
2022/05/28 01:12:14;;;;;;;1.63;1.53;;;;;;;13.26;100.00;96574.91;5030465;28;102151;-61
2022/05/28 01:14:48;;;;;;;1.43;1.33;;;;;;;13.23;100.00;96570.88;5030305;28;105598;-61
2022/05/28 01:17:19;;;;;;;1.83;1.33;;;;;;;13.25;100.00;96578.66;5030194;28;105493;-61
2022/05/28 01:20:00;;;;;;;1.70;1.60;;;;;;;13.31;100.00;96572.25;5034133;28;101965;-61
2022/05/28 01:22:43;;;;;;;2.80;1.40;;;;;;;13.18;100.00;96565.53;5030138;28;104030;-61
2022/05/28 01:25:19;;;;;;;2.73;1.80;;;;;;;13.25;100.00;96570.63;5030423;28;101876;-61
2022/05/28 01:28:11;;;;;;;2.17;1.80;;;;;;;13.23;100.00;96570.06;5030405;28;105109;-61
2022/05/28 01:30:39;;;;;;;1.97;1.57;;;;;;;13.19;100.00;96559.13;5029705;28;105112;-61
2022/05/28 01:33:09;;;;;;;2.30;1.83;;;;;;;13.11;100.00;96550.81;5030301;28;102071;-61
2022/05/28 01:35:37;;;;;;;2.40;1.73;;;;;;;13.14;100.00;96555.63;5030194;28;105686;-61
2022/05/28 01:38:06;;;;;;;3.00;2.00;;;;;;;13.08;100.00;96554.03;5029741;28;104768;-61
2022/05/28 01:40:35;;;;;;;1.73;1.40;;;;;;;13.02;100.00;96552.41;5030358;28;101992;-61
2022/05/28 01:43:07;;;;;;;1.60;1.50;;;;;;;13.03;100.00;96554.78;5033383;28;105330;-61
2022/05/28 01:45:58;;;;;;;1.87;1.77;;;;;;;12.99;100.00;96553.72;5030131;28;101989;-61
2022/05/28 01:48:27;;;;;;;1.80;1.60;;;;;;;12.99;100.00;96542.22;5030234;28;105149;-61
2022/05/28 01:50:56;;;;;;;1.90;1.80;;;;;;;13.00;100.00;96546.50;5029851;28;105481;-61
2022/05/28 01:56:10;;;;;;;2.63;1.93;;;;;;;13.06;100.00;96545.44;5012570;28;105654;-61
2022/05/28 01:58:37;;;;;;;1.60;1.50;;;;;;;13.01;100.00;96546.25;5029393;28;105310;-61
2022/05/28 02:01:08;;;;;;;1.87;1.77;;;;;;;13.06;100.00;96532.09;5029708;28;101901;-61
2022/05/28 02:03:38;;;;;;;1.67;1.37;;;;;;;13.07;100.00;96533.69;5030105;28;105155;-61
2022/05/28 02:06:05;;;;;;;1.83;1.57;;;;;;;12.98;100.00;96532.63;5033907;27;102127;-61
2022/05/28 02:08:37;;;;;;;1.63;1.53;;;;;;;13.01;100.00;96535.56;5031131;28;102565;-61
2022/05/28 02:11:11;;;;;;;1.80;1.40;;;;;;;12.98;100.00;96529.94;5030961;28;102811;-61
2022/05/28 02:13:50;;;;;;;1.73;1.30;;;;;;;12.93;100.00;96527.22;5030653;27;101749;-61
2022/05/28 02:16:25;;;;;;;1.70;1.60;;;;;;;13.03;100.00;96529.97;5031156;28;102376;-61
2022/05/28 02:18:56;;;;;;;1.83;1.57;;;;;;;13.04;100.00;96528.91;5030774;28;102731;-61
2022/05/28 02:21:34;;;;;;;1.50;1.40;;;;;;;12.98;100.00;96513.94;5029574;28;101874;-61
2022/05/28 02:24:06;;;;;;;1.50;1.40;;;;;;;12.96;100.00;96521.38;5009909;28;105598;-61
2022/05/28 02:26:43;;;;;;;1.50;1.40;;;;;;;12.94;100.00;96518.97;5031617;28;105738;-61
2022/05/28 02:29:12;;;;;;;1.40;1.40;;;;;;;12.93;100.00;96517.34;5029619;28;105205;-61
2022/05/28 02:31:45;;;;;;;1.83;1.73;;;;;;;12.91;100.00;96508.00;5029239;28;105009;-61
2022/05/28 02:34:13;;;;;;;1.73;1.60;;;;;;;12.93;100.00;96511.22;5029481;28;101832;-61
2022/05/28 02:36:41;;;;;;;1.70;1.57;;;;;;;12.87;100.00;96517.59;5029660;28;105211;-61
2022/05/28 02:39:09;;;;;;;2.27;2.07;;;;;;;12.88;100.00;96508.53;5028229;28;105750;-61
2022/05/28 02:41:35;;;;;;;3.07;1.57;;;;;;;12.85;100.00;96511.69;5030889;28;101834;-61
2022/05/28 02:44:03;;;;;;;1.90;1.80;;;;;;;12.87;100.00;96507.72;5029353;28;105236;-61
2022/05/28 02:46:29;;;;;;;1.80;1.70;;;;;;;12.77;100.00;96507.69;5028880;28;105901;-61
2022/05/28 02:48:58;;;;;;;2.07;1.60;;;;;;;12.69;100.00;96510.03;5032746;28;102360;-61
2022/05/28 02:51:25;;;;;;;1.43;1.33;;;;;;;12.75;100.00;96504.47;5028618;28;103766;-61
2022/05/28 02:53:54;;;;;;;1.67;1.57;;;;;;;12.81;100.00;96502.63;5030373;28;101864;-61
2022/05/28 02:56:22;;;;;;;1.87;1.67;;;;;;;12.69;100.00;96504.69;5029018;28;105062;-61
2022/05/28 02:59:38;;;;;;;1.40;1.40;;;;;;;12.70;100.00;96501.00;5028684;28;105336;-61
2022/05/28 03:02:05;;;;;;;1.73;1.63;;;;;;;12.72;100.00;96505.00;5028842;28;101837;-61
2022/05/28 03:05:04;;;;;;;1.80;1.70;;;;;;;12.69;100.00;96513.50;5028982;28;105191;-61
2022/05/28 03:07:32;;;;;;;2.60;1.53;;;;;;;12.68;100.00;96497.75;5028398;28;104765;-61
2022/05/28 03:09:59;;;;;;;1.90;1.80;;;;;;;12.59;100.00;96504.69;5029088;28;101919;-61
2022/05/28 03:12:26;;;;;;;1.80;1.70;;;;;;;12.59;100.00;96504.69;5031832;28;105082;-61
2022/05/28 03:15:11;;;;;;;1.97;1.53;;;;;;;12.50;100.00;96506.22;5030339;28;102000;-61
2022/05/28 03:17:39;;;;;;;3.23;1.77;;;;;;;12.46;100.00;96510.47;5028973;28;105677;-61
2022/05/28 03:20:12;;;;;;;1.90;1.80;;;;;;;12.45;100.00;96511.53;5028372;28;104545;-61
2022/05/28 03:22:39;;;;;;;1.70;1.60;;;;;;;12.41;100.00;96518.44;5028831;28;101827;-61
2022/05/28 03:25:06;;;;;;;3.43;1.80;;;;;;;12.43;100.00;96508.31;5031180;27;102649;-61
2022/05/28 03:27:34;;;;;;;2.37;2.17;;;;;;;12.40;100.00;96506.97;5032108;28;105818;-61
2022/05/28 03:30:00;;;;;;;1.90;1.80;;;;;;;12.32;100.00;96509.31;5033986;27;101683;-61
2022/05/28 03:32:28;;;;;;;2.13;1.90;;;;;;;12.25;100.00;96508.72;5032569;28;102957;-61
2022/05/28 03:35:04;;;;;;;1.77;1.63;;;;;;;12.32;100.00;96506.66;5034541;28;105861;-61
2022/05/28 03:37:33;;;;;;;1.80;1.70;;;;;;;12.30;100.00;96506.09;5033933;28;102447;-61
2022/05/28 03:40:00;;;;;;;2.30;2.10;;;;;;;12.35;100.00;96508.78;5032894;28;102511;-61
2022/05/28 03:42:27;;;;;;;2.63;1.97;;;;;;;12.31;100.00;96515.72;5032229;28;101950;-61
2022/05/28 03:44:54;;;;;;;2.20;2.00;;;;;;;12.32;100.00;96514.66;5032187;28;103835;-61
2022/05/28 03:47:21;;;;;;;2.00;1.90;;;;;;;12.35;100.00;96514.13;5031481;28;105045;-62
2022/05/28 03:49:48;;;;;;;2.87;2.53;;;;;;;12.37;100.00;96509.34;5032063;28;102252;-61
2022/05/28 03:52:14;;;;;;;6.90;3.10;;;;;;;12.31;100.00;96515.72;5032378;28;104215;-61
2022/05/28 03:54:44;;;;;;;3.53;1.90;;;;;;;12.30;100.00;96522.09;5031376;28;105336;-61
2022/05/28 03:57:15;;;;;;;2.40;2.20;;;;;;;12.31;100.00;96515.72;5035399;28;101980;-61
2022/05/28 03:59:42;;;;;;;2.17;2.03;;;;;;;12.42;100.00;96515.50;5031343;28;104145;-61
2022/05/28 04:02:10;;;;;;;2.90;2.00;;;;;;;12.45;100.00;96524.88;5031477;28;101937;-61
2022/05/28 04:04:47;;;;;;;2.37;2.17;;;;;;;12.46;100.00;96524.59;5031624;28;105141;-61
2022/05/28 04:07:15;;;;;;;2.00;1.90;;;;;;;12.52;100.00;96526.25;5044971;27;105243;-61
2022/05/28 04:09:44;;;;;;;2.40;2.20;;;;;;;12.57;100.00;96530.78;5022571;28;101971;-61
2022/05/28 04:12:12;;;;;;;2.30;2.10;;;;;;;12.61;100.00;96531.88;5031832;28;104551;-61
2022/05/28 04:14:49;;;;;;;2.53;2.20;;;;;;;12.64;100.00;96534.06;5031240;28;103822;-61
2022/05/28 04:17:17;;;;;;;2.17;2.00;;;;;;;12.75;100.00;96530.38;5035097;28;102072;-61
2022/05/28 04:19:43;;;;;;;2.30;2.10;;;;;;;12.82;100.00;96536.25;5030974;28;104907;-61
2022/05/28 04:22:11;;;;;;;2.20;2.10;;;;;;;12.82;100.00;96531.72;5031625;28;101961;-61
2022/05/28 04:24:55;;;;;;;2.40;2.20;;;;;;;12.90;100.00;96539.22;5031742;28;105373;-61
2022/05/28 04:27:43;;;;;;;2.13;2.03;;;;;;;12.83;100.00;96535.19;5029405;28;105368;-61
2022/05/28 04:30:11;;;;;;;2.43;2.20;;;;;;;12.87;100.00;96531.72;5012421;28;102005;-61
2022/05/28 04:32:37;;;;;;;2.10;2.00;;;;;;;12.82;100.00;96529.03;5011559;28;103678;-61
2022/05/28 04:35:05;;;;;;;2.37;2.00;;;;;;;12.92;100.00;96528.28;5029313;28;105316;-61
2022/05/28 04:37:32;;;;;;;4.13;2.03;;;;;;;12.84;100.00;96536.78;5044795;27;101889;-61
2022/05/28 04:40:01;;;;;;;1.97;1.80;;;;;;;12.89;100.00;96532.28;5015407;28;102563;-61
2022/05/28 04:42:28;;;;;;;2.30;2.20;;;;;;;12.91;100.00;96537.38;5027913;28;101863;-61
2022/05/28 04:45:13;;;;;;;2.40;2.20;;;;;;;12.91;100.00;96538.16;5032973;28;102331;-61
2022/05/28 04:47:40;;;;;;;2.17;1.90;;;;;;;12.92;100.00;96536.31;5010610;28;105845;-61
2022/05/28 04:50:09;;;;;;;3.43;2.47;;;;;;;12.95;100.00;96536.59;5011127;28;102056;-62
2022/05/28 04:52:38;;;;;;;2.70;2.50;;;;;;;12.89;100.00;96536.81;5030213;28;105263;-61
2022/05/28 04:55:11;;;;;;;3.53;2.90;;;;;;;12.90;100.00;96538.41;5031797;28;102815;-61
2022/05/28 04:57:38;;;;;;;3.27;2.97;;;;;;;12.90;100.00;96547.25;5032115;27;102873;-61
2022/05/28 05:00:10;;;;;;;3.57;3.07;;;;;;;12.83;100.00;96541.34;5031252;28;105496;-61
2022/05/28 05:02:37;;;;;;;4.03;3.10;;;;;;;12.90;100.00;96543.75;5035335;28;102649;-61
2022/05/28 05:05:08;;;;;;;3.77;3.40;;;;;;;12.90;100.00;96543.75;5031088;28;105368;-61
2022/05/28 05:07:35;;;;;;;3.43;3.13;;;;;;;12.78;100.00;96537.84;5030198;28;106490;-61
2022/05/28 05:10:03;;;;;;;3.30;2.97;;;;;;;12.76;100.00;96545.31;5031855;28;101969;-61
2022/05/28 05:12:32;;;;;;;4.40;3.20;;;;;;;12.69;100.00;96542.88;5030790;28;105028;-61
2022/05/28 05:15:07;;;;;;;5.03;3.10;;;;;;;12.60;100.00;96556.97;5030316;28;104965;-61
2022/05/28 05:17:35;;;;;;;4.83;2.83;;;;;;;12.54;100.00;96552.66;5030813;28;101890;-61
2022/05/28 05:20:02;;;;;;;4.43;2.90;;;;;;;12.39;100.00;96547.22;5064875;27;105254;-61
2022/05/28 05:22:29;;;;;;;3.60;2.77;;;;;;;12.30;100.00;96544.25;5031050;28;103064;-61
2022/05/28 05:25:07;;;;;;;3.53;3.00;;;;;;;12.19;100.00;96547.91;5034375;28;101929;-61
2022/05/28 05:27:36;;;;;;;6.07;3.13;;;;;;;12.31;100.00;96558.41;5029699;28;103913;-61
2022/05/28 05:30:05;;;;;;;5.97;3.00;;;;;;;12.26;100.00;96558.34;5030700;28;101799;-61
2022/05/28 05:32:32;;;;;;;4.77;2.93;;;;;;;12.31;100.00;96561.06;5030000;28;105383;-61
2022/05/28 05:34:59;;;;;;;5.03;3.00;;;;;;;12.31;100.00;96558.41;5029884;28;105026;-61
2022/05/28 05:37:26;;;;;;;5.17;3.00;;;;;;;12.36;100.00;96567.22;5030353;28;101873;-61
2022/05/28 05:39:53;;;;;;;5.40;3.40;;;;;;;12.36;100.00;96569.06;5031381;28;103361;-61
2022/05/28 05:42:20;;;;;;;6.27;3.30;;;;;;;12.45;100.00;96570.19;5029468;28;104157;-62
2022/05/28 05:45:42;;;;;;;4.07;3.00;;;;;;;12.50;100.00;96564.91;5030509;28;101953;-61
2022/05/28 05:48:10;;;;;;;6.13;2.90;;;;;;;12.47;100.00;96568.06;5032317;27;105773;-61
2022/05/28 05:50:37;;;;;;;6.63;3.23;;;;;;;12.62;100.00;96568.97;5030174;28;102009;-62
2022/05/28 05:53:04;;;;;;;4.60;3.10;;;;;;;12.87;100.00;96568.31;5030229;28;104119;-61
2022/05/28 05:55:31;;;;;;;6.33;3.50;;;;;;;13.02;100.00;96574.53;5029261;28;105696;-61
2022/05/28 06:01:43;;;;;;;4.67;3.57;;;;;;;13.20;100.00;96562.59;5029220;28;103962;-62
2022/05/28 06:04:51;;;;;;;4.70;2.93;;;;;;;12.98;100.00;96560.09;5027768;28;105443;-61
2022/05/28 06:07:19;;;;;;;5.20;3.00;;;;;;;13.04;100.00;96560.94;5029974;28;101848;-61
2022/05/28 06:09:46;;;;;;;7.47;3.50;;;;;;;12.89;100.00;96561.66;5029686;28;106052;-61
2022/05/28 06:12:13;;;;;;;6.03;3.30;;;;;;;12.96;100.00;96561.41;5032448;28;105322;-61
2022/05/28 06:14:57;;;;;;;5.20;3.17;;;;;;;13.30;100.00;96554.63;5029338;28;103663;-61
2022/05/28 06:17:24;;;;;;;4.77;2.40;;;;;;;13.29;100.00;96553.81;5028907;28;105300;-62
2022/05/28 06:19:51;;;;;;;3.97;2.73;;;;;;;13.50;100.00;96554.66;5029871;28;101981;-61
2022/05/28 06:22:19;;;;;;;4.20;2.33;;;;;;;13.26;100.00;96548.19;5029595;28;104754;-62
2022/05/28 06:25:33;;;;;;;3.67;2.33;;;;;;;13.45;100.00;96557.31;5029492;28;103933;-61
2022/05/28 06:28:50;;;;;;;4.30;2.20;;;;;;;13.12;100.00;96558.56;5009787;28;102045;-61
2022/05/28 06:31:18;;;;;;;4.37;2.70;;;;;;;13.23;100.00;96554.88;5028403;28;105502;-61
2022/05/28 06:33:45;;;;;;;4.53;2.43;;;;;;;13.34;100.00;96553.00;5032436;28;105346;-61
2022/05/28 06:36:13;;;;;;;3.43;1.93;;;;;;;13.37;100.00;96547.16;5029642;28;105063;-61
2022/05/28 06:38:45;;;;;;;4.70;2.53;;;;;;;13.33;100.00;96548.75;5028155;28;104357;-61
2022/05/28 06:41:12;;;;;;;4.17;2.20;;;;;;;13.17;100.00;96552.44;5029556;28;101828;-61
2022/05/28 06:43:46;;;;;;;3.60;2.33;;;;;;;12.99;100.00;96550.25;5029544;28;104949;-61
2022/05/28 06:46:13;;;;;;;2.87;2.10;;;;;;;13.03;100.00;96543.31;5028292;28;105163;-61
2022/05/28 06:48:40;;;;;;;5.57;2.50;;;;;;;13.14;100.00;96558.31;5030861;27;101845;-61
2022/05/28 06:51:08;;;;;;;5.00;2.53;;;;;;;13.21;100.00;96556.19;5030704;28;102452;-61
2022/05/28 06:53:37;;;;;;;3.00;2.30;;;;;;;13.33;100.00;96548.75;5028753;28;104125;-61
2022/05/28 06:56:08;;;;;;;4.87;2.87;;;;;;;13.42;100.00;96549.84;5032449;28;101977;-61
2022/05/28 06:58:55;;;;;;;4.77;2.43;;;;;;;13.35;100.00;96551.97;5028604;27;106100;-61
2022/05/28 07:01:21;;;;;;;4.53;2.77;;;;;;;13.52;100.00;96539.97;5028900;28;102647;-61
2022/05/28 07:07:35;;;;;;;5.20;3.50;;;;;;;12.97;100.00;96563.06;5026216;28;102143;-61
2022/05/28 07:10:02;;;;;;;3.67;3.10;;;;;;;12.96;100.00;96556.91;5028887;28;102043;-61
2022/05/28 07:12:31;;;;;;;8.40;3.50;;;;;;;12.97;100.00;96555.81;5028631;28;106263;-61
2022/05/28 07:15:04;;;;;;;6.50;3.50;;;;;;;13.00;100.00;96549.16;5027996;28;105569;-62
2022/05/28 07:17:30;;;;;;;7.27;3.70;;;;;;;13.01;100.00;96556.91;5029255;28;101901;-61
2022/05/28 07:19:57;;;;;;;4.37;3.30;;;;;;;13.04;100.00;96551.03;5031677;28;105030;-61
2022/05/28 07:22:24;;;;;;;3.70;3.27;;;;;;;13.07;100.00;96557.72;5028481;28;101957;-61
2022/05/28 07:24:58;;;;;;;5.30;3.47;;;;;;;13.28;100.00;96554.88;5028680;28;105465;-61
2022/05/28 07:27:50;;;;;;;4.40;3.50;;;;;;;13.29;100.00;96550.31;5028077;28;103841;-62
2022/05/28 07:30:17;;;;;;;4.97;3.47;;;;;;;13.34;100.00;96550.34;5028676;28;102300;-61
2022/05/28 07:32:44;;;;;;;4.70;3.13;;;;;;;13.40;100.00;96550.09;5028470;28;103776;-61
2022/05/28 07:36:02;;;;;;;4.40;2.90;;;;;;;13.39;100.00;96547.69;5058381;27;106751;-62
2022/05/28 07:38:31;;;;;;;6.10;3.37;;;;;;;13.35;100.00;96547.41;5030312;28;101721;-62
2022/05/28 07:41:02;;;;;;;5.90;3.00;;;;;;;13.49;100.00;96551.19;5029231;28;103200;-62
2022/05/28 07:43:30;;;;;;;3.67;2.90;;;;;;;13.51;100.00;96550.94;5032771;27;102567;-61
2022/05/28 07:45:57;;;;;;;4.37;3.20;;;;;;;13.19;100.00;96547.66;5028475;28;103411;-62
2022/05/28 07:48:24;;;;;;;7.30;3.00;;;;;;;13.26;100.00;96545.53;5029544;28;103295;-62
2022/05/28 07:50:51;;;;;;;7.53;3.33;;;;;;;13.32;100.00;96541.81;5027731;28;102110;-61
2022/05/28 07:53:18;;;;;;;5.47;2.90;;;;;;;13.58;100.00;96543.47;5028772;28;105022;-62
2022/05/28 07:55:45;;;;;;;7.33;2.87;;;;;;;13.15;100.00;96543.88;5027241;28;105485;-62
2022/05/28 07:58:14;;;;;;;5.33;2.70;;;;;;;13.01;100.00;96538.22;5028475;28;101795;-62
2022/05/28 08:00:44;;;;;;;4.80;2.50;;;;;;;13.00;100.00;96538.50;5028044;28;102911;-62
2022/05/28 08:03:13;;;;;;;3.87;2.60;;;;;;;12.94;100.00;96545.66;5010211;28;106265;-62
2022/05/28 08:05:56;;;;;;;5.17;2.77;;;;;;;12.90;100.00;96544.56;5032817;28;101841;-62
2022/05/28 08:08:26;;;;;;;4.30;2.67;;;;;;;13.24;100.00;96545.00;5029146;27;102508;-61
2022/05/28 08:10:54;;;;;;;5.07;2.90;;;;;;;13.51;100.00;96542.94;5030024;27;102037;-61
2022/05/28 08:13:23;;;;;;;3.87;2.63;;;;;;;13.24;100.00;96551.13;5032670;28;102555;-61
2022/05/28 08:15:54;;;;;;;5.50;2.77;;;;;;;13.29;100.00;96553.00;5031899;28;102831;-61
2022/05/28 08:18:24;;;;;;;3.67;2.10;;;;;;;13.12;100.00;96553.22;5011655;28;101819;-61
2022/05/28 08:23:40;;;;;;;5.27;2.67;;;;;;;13.19;100.00;96545.75;5016093;28;102911;-61
2022/05/28 08:26:07;;;;;;;4.30;2.63;;;;;;;13.13;100.00;96562.06;5032632;27;101882;-62
2022/05/28 08:29:14;;;;;;;4.60;2.20;;;;;;;13.18;100.00;96554.03;5035723;28;102400;-61
2022/05/28 08:31:42;;;;;;;3.77;2.43;;;;;;;13.36;100.00;96559.69;5030822;28;103823;-62
2022/05/28 08:37:57;;;;;;;6.07;2.20;;;;;;;13.23;100.00;96564.72;5029314;28;102209;-61
2022/05/28 08:40:25;;;;;;;4.57;2.50;;;;;;;13.36;100.00;96561.59;5031014;28;103093;-61
2022/05/28 08:42:52;;;;;;;5.97;2.70;;;;;;;13.40;100.00;96560.78;5031170;28;103685;-62
2022/05/28 08:45:52;;;;;;;6.27;2.50;;;;;;;13.46;100.00;96554.38;5031822;28;102935;-62
2022/05/28 08:48:26;;;;;;;5.70;2.70;;;;;;;13.73;100.00;96559.53;5031583;28;101981;-62
2022/05/28 08:50:59;;;;;;;4.77;2.47;;;;;;;13.74;100.00;96555.78;5015636;28;102869;-62
2022/05/28 08:53:31;;;;;;;4.00;2.30;;;;;;;14.11;100.00;96553.66;5014693;28;101800;-62
2022/05/28 08:55:59;;;;;;;5.60;2.40;;;;;;;14.14;100.00;96558.47;5032705;28;102392;-62
2022/05/28 09:01:49;;;;;;;6.93;2.80;;;;;;;13.85;100.00;96568.88;5032156;27;101801;-61
2022/05/28 09:04:59;;;;;;;5.13;3.03;;;;;;;13.86;100.00;96567.00;5032149;28;102599;-62
2022/05/28 09:07:27;;;;;;;6.13;2.77;;;;;;;14.28;100.00;96565.69;5032063;27;102697;-62
2022/05/28 09:09:56;;;;;;;5.40;2.93;;;;;;;14.57;100.00;96571.28;5030446;28;102346;-62
2022/05/28 09:12:29;;;;;;;4.80;2.50;;;;;;;14.38;100.00;96575.59;5031937;28;102361;-62
2022/05/28 09:15:11;;;;;;;4.97;2.20;;;;;;;14.34;100.00;96571.84;5033616;28;105959;-62
2022/05/28 09:17:41;;;;;;;5.37;1.83;;;;;;;14.37;100.00;96569.44;5032621;27;102816;-62
2022/05/28 09:20:12;;;;;;;4.20;2.00;;;;;;;14.29;100.00;96563.84;5031036;28;102557;-62
2022/05/28 09:22:41;;;;;;;3.47;1.80;;;;;;;14.40;100.00;96557.41;5031135;27;101671;-62
2022/05/28 09:25:32;;;;;;;3.43;1.70;;;;;;;14.15;100.00;96560.88;5031881;28;102877;-62
2022/05/28 09:28:39;;;;;;;4.53;1.90;;;;;;;14.34;100.00;96566.50;5030044;28;103873;-62
2022/05/28 09:31:16;;;;;;;5.87;1.93;;;;;;;14.67;100.00;96557.88;5030520;28;101865;-62
2022/05/28 09:34:26;;;;;;;2.97;1.73;;;;;;;14.85;100.00;96562.66;5013837;28;104214;-69
2022/05/28 09:37:01;;;;;;;2.60;1.80;;;;;;;14.62;98.95;96556.03;5029867;28;105882;-61
2022/05/28 09:39:45;;;;;;;5.30;1.83;;;;;;;14.93;98.30;96552.16;5034147;28;102139;-62
2022/05/28 09:42:32;;;;;;;3.90;1.93;;;;;;;15.61;99.88;96550.53;5028830;28;105233;-62
2022/05/28 09:45:40;;;;;;;3.13;1.63;;;;;;;15.92;98.31;96544.66;5031812;27;102037;-62
2022/05/28 09:48:18;;;;;;;5.20;1.93;;;;;;;15.35;99.52;96552.56;5029745;28;105201;-62
2022/05/28 09:50:45;;;;;;;3.27;1.47;;;;;;;14.97;84.08;96550.56;5029892;28;105418;-62
2022/05/28 09:56:09;;;;;;;3.27;1.20;;;;;;;15.33;77.91;96538.66;5030796;28;101847;-62
2022/05/28 10:02:14;;;;;;;3.90;1.63;;;;;;;15.44;80.03;96539.38;5029523;28;101895;-61
2022/05/28 10:04:53;;;;;;;3.70;1.47;;;;;;;15.64;83.96;96544.63;5032313;28;105055;-63
2022/05/28 10:07:37;;;;;;;4.70;1.60;;;;;;;15.66;78.30;96537.91;5029328;28;101864;-62
2022/05/28 10:10:17;;;;;;;3.97;1.77;;;;;;;15.80;76.70;96532.72;5029685;28;104222;-62
2022/05/28 10:12:45;;;;;;;3.90;1.80;;;;;;;15.82;92.27;96530.56;5026386;28;102956;-62
2022/05/28 10:15:15;;;;;;;4.17;2.03;;;;;;;15.57;79.36;96522.66;5030198;28;103018;-62
2022/05/28 10:17:44;;;;;;;3.70;1.67;;;;;;;15.46;81.09;96531.84;5029526;28;105063;-63
2022/05/28 10:20:17;;;;;;;3.20;1.30;;;;;;;15.76;75.56;96527.09;5029260;28;105557;-64
2022/05/28 10:22:45;;;;;;;2.97;1.53;;;;;;;16.15;79.32;96521.69;5029882;28;101763;-64
2022/05/28 10:26:08;;;;;;;3.30;1.40;;;;;;;15.81;71.98;96519.00;5030178;28;102460;-63
2022/05/28 10:29:18;;;;;;;4.23;1.47;;;;;;;15.77;69.38;96534.09;5031859;28;105568;-64
2022/05/28 10:31:50;;;;;;;4.67;1.40;;;;;;;15.62;68.50;96530.69;5029873;28;105091;-64
2022/05/28 10:34:29;;;;;;;5.33;1.80;;;;;;;15.38;65.14;96529.78;5027971;28;105839;-64
2022/05/28 10:37:07;;;;;;;4.20;1.57;;;;;;;15.48;72.62;96524.34;5029721;28;101929;-64
2022/05/28 10:39:37;;;;;;;4.20;1.80;;;;;;;15.88;72.69;96514.16;5030766;28;102312;-64
2022/05/28 10:42:06;;;;;;;4.27;1.40;;;;;;;15.76;70.07;96523.63;5029779;27;102601;-64
2022/05/28 10:44:34;;;;;;;3.27;1.50;;;;;;;15.43;60.60;96527.84;5029221;28;101892;-64
2022/05/28 10:47:18;;;;;;;3.27;1.17;;;;;;;15.67;61.27;96517.25;5029708;28;105547;-64
2022/05/28 10:49:59;;;;;;;2.53;1.30;;;;;;;15.67;59.79;96530.66;5028895;28;105474;-64
2022/05/28 10:52:36;;;;;;;1.23;0.90;;;;;;;15.89;58.56;96520.28;5032528;28;102066;-64
2022/05/28 10:55:25;;;;;;;2.27;1.30;;;;;;;15.75;56.82;96519.34;5027680;28;105710;-64
2022/05/28 11:01:50;;;;;;;3.60;1.50;;;;;;;16.41;52.77;96507.78;5028858;28;101958;-64
2022/05/28 11:08:01;;;;;;;3.47;1.30;;;;;;;16.65;55.34;96502.44;5010349;28;101711;-64
2022/05/28 11:10:43;;;;;;;3.80;1.40;;;;;;;16.83;58.36;96505.19;5043872;27;104887;-64
2022/05/28 11:13:30;;;;;;;4.23;2.13;;;;;;;16.30;55.23;96498.19;5008425;28;104997;-64
2022/05/28 11:16:09;;;;;;;4.20;1.60;;;;;;;16.62;55.78;96503.81;5058453;27;101968;-64
2022/05/28 11:19:02;;;;;;;3.40;1.53;;;;;;;16.33;55.79;96502.19;5028542;28;105802;-64
2022/05/28 11:21:46;;;;;;;4.37;1.67;;;;;;;16.67;60.54;96489.53;5028768;28;102230;-64
2022/05/28 11:24:47;;;;;;;4.10;1.57;;;;;;;16.82;58.71;96487.47;5028785;28;105563;-64
2022/05/28 11:30:40;;;;;;;2.23;1.17;;;;;;;16.11;61.44;96493.81;5028686;28;101854;-64
2022/05/28 11:33:19;;;;;;;2.93;1.27;;;;;;;15.87;59.08;96491.06;5028836;28;105965;-64
2022/05/28 11:36:37;;;;;;;3.33;1.27;;;;;;;15.90;64.60;96490.53;5027869;28;105519;-64
2022/05/28 11:39:09;;;;;;;3.30;1.50;;;;;;;15.98;63.66;96481.06;5028663;28;101768;-64
2022/05/28 11:41:45;;;;;;;4.97;1.80;;;;;;;16.39;64.63;96479.63;5031259;28;105195;-64
2022/05/28 11:44:19;;;;;;;3.13;1.57;;;;;;;16.78;65.25;96472.22;5028924;28;101780;-64
2022/05/28 11:46:50;;;;;;;3.57;1.40;;;;;;;16.85;61.35;96476.13;5010543;28;103602;-64
2022/05/28 11:52:15;;;;;;;3.60;1.40;;;;;;;16.91;62.32;96472.31;5021158;28;101866;-64
2022/05/28 11:55:22;;;;;;;3.33;1.50;;;;;;;16.76;64.79;96469.00;5033036;28;102459;-64
2022/05/28 12:01:22;;;;;;;3.57;1.93;;;;;;;16.47;63.07;96452.94;5032698;27;102004;-64
2022/05/28 12:04:10;;;;;;;4.30;1.33;;;;;;;16.59;56.70;96460.63;5032241;28;105138;-64
2022/05/28 12:06:42;;;;;;;4.07;1.30;;;;;;;16.77;55.12;96457.97;5030455;28;105540;-64
2022/05/28 12:09:21;;;;;;;2.33;0.90;;;;;;;17.02;52.83;96454.19;5031054;28;102936;-64
2022/05/28 12:11:53;;;;;;;2.07;1.10;;;;;;;17.05;52.22;96438.28;5031178;28;105365;-64
2022/05/28 12:14:43;;;;;;;1.90;0.80;;;;;;;17.27;50.54;96437.72;5031593;28;102111;-64
2022/05/28 12:17:23;;;;;;;2.97;1.27;;;;;;;17.64;48.38;96445.75;5033307;27;102627;-64
2022/05/28 12:19:54;;;;;;;2.70;1.27;;;;;;;17.20;47.78;96439.94;5032210;27;103151;-64
2022/05/28 12:22:31;;;;;;;3.73;1.10;;;;;;;17.44;46.86;96436.13;5033168;28;101894;-64
2022/05/28 12:25:34;;;;;;;2.17;0.90;;;;;;;17.28;47.70;96432.03;5033100;28;102364;-64
2022/05/28 12:28:25;;;;;;;2.93;1.03;;;;;;;16.79;50.51;96428.94;5032686;28;103124;-64
2022/05/28 12:30:54;;;;;;;2.63;0.93;;;;;;;16.91;53.01;96429.34;5031425;28;102401;-64
2022/05/28 12:33:27;;;;;;;1.90;0.90;;;;;;;17.41;55.09;96411.72;5031864;27;103159;-63
2022/05/28 12:36:02;;;;;;;2.40;1.00;;;;;;;17.62;57.32;96411.13;5031603;28;101737;-62